sensor_id;sensor_type;location;lat;lon;timestamp;pressure;altitude;pressure_sealevel;temperature;humidity
51081;BME280;37130;55.670;37.596;2022-12-11T00:58:55;98661.06;;;0.67;100.00
51081;BME280;37130;55.670;37.596;2022-12-11T01:01:24;98489.66;;;-0.30;100.00
51081;BME280;37130;55.670;37.596;2022-12-11T01:03:52;98661.69;;;0.78;100.00
51081;BME280;37130;55.670;37.596;2022-12-11T01:06:22;98667.63;;;0.83;100.00
51081;BME280;37130;55.670;37.596;2022-12-11T01:08:50;98682.53;;;0.78;100.00
51081;BME280;37130;55.670;37.596;2022-12-11T01:11:37;98677.91;;;0.89;100.00
51081;BME280;37130;55.670;37.596;2022-12-11T01:14:04;98662.16;;;0.95;100.00
51081;BME280;37130;55.670;37.596;2022-12-11T01:16:31;98662.78;;;1.05;100.00
51081;BME280;37130;55.670;37.596;2022-12-11T01:18:59;98672.41;;;1.03;100.00
51081;BME280;37130;55.670;37.596;2022-12-11T01:21:27;98647.28;;;0.99;100.00
51081;BME280;37130;55.670;37.596;2022-12-11T01:23:55;98652.31;;;1.06;100.00
51081;BME280;37130;55.670;37.596;2022-12-11T01:26:22;98667.94;;;1.08;100.00
51081;BME280;37130;55.670;37.596;2022-12-11T01:28:50;98655.69;;;1.10;100.00
51081;BME280;37130;55.670;37.596;2022-12-11T01:31:18;98652.22;;;1.09;100.00
51081;BME280;37130;55.670;37.596;2022-12-11T01:33:46;98637.69;;;0.99;100.00
51081;BME280;37130;55.670;37.596;2022-12-11T01:36:17;98653.03;;;1.13;100.00
51081;BME280;37130;55.670;37.596;2022-12-11T01:38:46;98653.81;;;1.15;100.00
51081;BME280;37130;55.670;37.596;2022-12-11T01:41:16;98655.75;;;1.08;100.00
51081;BME280;37130;55.670;37.596;2022-12-11T01:43:58;98663.84;;;0.96;100.00
51081;BME280;37130;55.670;37.596;2022-12-11T01:46:27;98673.50;;;0.93;100.00
51081;BME280;37130;55.670;37.596;2022-12-11T01:48:55;98563.59;;;0.39;100.00
51081;BME280;37130;55.670;37.596;2022-12-11T01:51:25;98667.19;;;1.01;100.00
51081;BME280;37130;55.670;37.596;2022-12-11T01:53:59;98660.38;;;0.97;100.00
51081;BME280;37130;55.670;37.596;2022-12-11T01:56:30;98659.56;;;0.94;100.00
51081;BME280;37130;55.670;37.596;2022-12-11T01:59:01;98659.63;;;0.91;100.00
51081;BME280;37130;55.670;37.596;2022-12-11T02:01:40;98662.31;;;0.87;100.00
51081;BME280;37130;55.670;37.596;2022-12-11T02:04:14;98666.75;;;0.84;100.00
51081;BME280;37130;55.670;37.596;2022-12-11T02:06:44;98675.56;;;0.78;100.00
51081;BME280;37130;55.670;37.596;2022-12-11T02:09:15;98679.03;;;0.79;100.00
51081;BME280;37130;55.670;37.596;2022-12-11T02:14:41;98678.22;;;0.77;100.00
51081;BME280;37130;55.670;37.596;2022-12-11T02:17:47;98677.22;;;0.82;100.00
51081;BME280;37130;55.670;37.596;2022-12-11T02:28:55;98702.94;;;0.96;100.00
51081;BME280;37130;55.670;37.596;2022-12-11T02:31:28;98707.50;;;0.88;100.00
51081;BME280;37130;55.670;37.596;2022-12-11T02:34:03;98709.84;;;0.99;100.00
51081;BME280;37130;55.670;37.596;2022-12-11T02:36:39;98637.38;;;0.38;100.00
51081;BME280;37130;55.670;37.596;2022-12-11T02:39:10;98713.69;;;0.82;100.00
51081;BME280;37130;55.670;37.596;2022-12-11T02:41:45;98718.91;;;0.84;100.00
51081;BME280;37130;55.670;37.596;2022-12-11T02:44:18;98711.19;;;0.78;100.00
51081;BME280;37130;55.670;37.596;2022-12-11T02:46:46;98714.66;;;0.78;100.00
51081;BME280;37130;55.670;37.596;2022-12-11T02:49:15;98721.75;;;0.72;100.00
51081;BME280;37130;55.670;37.596;2022-12-11T02:51:44;98713.69;;;0.82;100.00
51081;BME280;37130;55.670;37.596;2022-12-11T02:54:16;98694.53;;;0.85;100.00
51081;BME280;37130;55.670;37.596;2022-12-11T02:56:50;98717.06;;;0.87;100.00
51081;BME280;37130;55.670;37.596;2022-12-11T02:59:24;98717.84;;;0.91;100.00
51081;BME280;37130;55.670;37.596;2022-12-11T03:01:53;98736.06;;;0.93;100.00
51081;BME280;37130;55.670;37.596;2022-12-11T03:04:20;98731.69;;;0.93;100.00
51081;BME280;37130;55.670;37.596;2022-12-11T03:06:53;98718.00;;;0.83;100.00
51081;BME280;37130;55.670;37.596;2022-12-11T03:09:22;98738.50;;;1.00;100.00
51081;BME280;37130;55.670;37.596;2022-12-11T03:11:50;98741.19;;;0.97;100.00
51081;BME280;37130;55.670;37.596;2022-12-11T03:14:18;98739.66;;;0.87;100.00
51081;BME280;37130;55.670;37.596;2022-12-11T03:17:14;98739.75;;;0.82;100.00
51081;BME280;37130;55.670;37.596;2022-12-11T03:25:07;98751.72;;;0.91;100.00
51081;BME280;37130;55.670;37.596;2022-12-11T03:30:18;98654.25;;;0.22;100.00
51081;BME280;37130;55.670;37.596;2022-12-11T03:32:53;98759.84;;;0.77;100.00
51081;BME280;37130;55.670;37.596;2022-12-11T03:35:28;98760.91;;;0.69;100.00
51081;BME280;37130;55.670;37.596;2022-12-11T03:38:03;98767.06;;;0.64;100.00
51081;BME280;37130;55.670;37.596;2022-12-11T03:40:33;98761.94;;;0.61;100.00
51081;BME280;37130;55.670;37.596;2022-12-11T03:43:03;98769.59;;;0.68;100.00
51081;BME280;37130;55.670;37.596;2022-12-11T03:45:32;98771.13;;;0.78;100.00
51081;BME280;37130;55.670;37.596;2022-12-11T03:48:01;98764.13;;;0.81;100.00
51081;BME280;37130;55.670;37.596;2022-12-11T03:50:30;98778.69;;;0.90;100.00
51081;BME280;37130;55.670;37.596;2022-12-11T03:52:59;98764.75;;;0.91;100.00
51081;BME280;37130;55.670;37.596;2022-12-11T03:55:29;98786.19;;;1.05;100.00
51081;BME280;37130;55.670;37.596;2022-12-11T03:57:58;98785.25;;;1.08;100.00
51081;BME280;37130;55.670;37.596;2022-12-11T04:00:26;98787.78;;;1.11;100.00
51081;BME280;37130;55.670;37.596;2022-12-11T04:02:54;98793.78;;;1.15;100.00
51081;BME280;37130;55.670;37.596;2022-12-11T04:05:49;98793.03;;;1.09;100.00
51081;BME280;37130;55.670;37.596;2022-12-11T04:08:18;98797.44;;;1.07;100.00
51081;BME280;37130;55.670;37.596;2022-12-11T04:10:50;98815.63;;;1.11;100.00
51081;BME280;37130;55.670;37.596;2022-12-11T04:13:39;98814.72;;;1.12;100.00
51081;BME280;37130;55.670;37.596;2022-12-11T04:16:07;98721.47;;;0.45;100.00
51081;BME280;37130;55.670;37.596;2022-12-11T04:18:35;98805.53;;;0.94;100.00
51081;BME280;37130;55.670;37.596;2022-12-11T04:21:21;98804.94;;;0.81;100.00
51081;BME280;37130;55.670;37.596;2022-12-11T04:24:07;98806.53;;;0.88;100.00
51081;BME280;37130;55.670;37.596;2022-12-11T04:26:46;98797.09;;;0.84;100.00
51081;BME280;37130;55.670;37.596;2022-12-11T04:29:14;98702.09;;;0.16;100.00
51081;BME280;37130;55.670;37.596;2022-12-11T04:31:41;98815.22;;;0.88;100.00
51081;BME280;37130;55.670;37.596;2022-12-11T04:34:09;98796.44;;;0.73;100.00
51081;BME280;37130;55.670;37.596;2022-12-11T04:36:37;98790.66;;;0.58;100.00
51081;BME280;37130;55.670;37.596;2022-12-11T04:39:04;98789.75;;;0.59;100.00
51081;BME280;37130;55.670;37.596;2022-12-11T04:41:33;98813.81;;;0.72;100.00
51081;BME280;37130;55.670;37.596;2022-12-11T04:44:00;98831.22;;;0.72;100.00
51081;BME280;37130;55.670;37.596;2022-12-11T04:46:27;98820.94;;;0.62;100.00
51081;BME280;37130;55.670;37.596;2022-12-11T04:48:56;98820.94;;;0.62;100.00
51081;BME280;37130;55.670;37.596;2022-12-11T04:51:24;98813.13;;;0.62;100.00
51081;BME280;37130;55.670;37.596;2022-12-11T04:53:52;98750.84;;;0.08;100.00
51081;BME280;37130;55.670;37.596;2022-12-11T04:56:20;98730.38;;;-0.10;100.00
51081;BME280;37130;55.670;37.596;2022-12-11T04:58:48;98809.19;;;0.43;100.00
51081;BME280;37130;55.670;37.596;2022-12-11T05:01:18;98613.91;;;-0.89;100.00
51081;BME280;37130;55.670;37.596;2022-12-11T05:03:47;98809.53;;;0.25;100.00
51081;BME280;37130;55.670;37.596;2022-12-11T05:06:15;98716.16;;;-0.39;100.00
51081;BME280;37130;55.670;37.596;2022-12-11T05:08:43;98796.66;;;0.17;100.00
51081;BME280;37130;55.670;37.596;2022-12-11T05:11:13;98753.06;;;-0.18;100.00
51081;BME280;37130;55.670;37.596;2022-12-11T05:13:41;98820.25;;;0.09;100.00
51081;BME280;37130;55.670;37.596;2022-12-11T05:16:11;98820.25;;;0.09;100.00
51081;BME280;37130;55.670;37.596;2022-12-11T05:18:39;98835.66;;;0.21;100.00
51081;BME280;37130;55.670;37.596;2022-12-11T05:21:09;98832.97;;;0.25;100.00
51081;BME280;37130;55.670;37.596;2022-12-11T05:23:37;98794.31;;;0.03;100.00
51081;BME280;37130;55.670;37.596;2022-12-11T05:26:12;98840.81;;;0.23;100.00
51081;BME280;37130;55.670;37.596;2022-12-11T05:28:41;98784.25;;;-0.15;100.00
51081;BME280;37130;55.670;37.596;2022-12-11T05:31:12;98846.91;;;0.22;100.00
51081;BME280;37130;55.670;37.596;2022-12-11T05:33:40;98858.19;;;0.22;100.00
51081;BME280;37130;55.670;37.596;2022-12-11T05:36:14;98859.88;;;0.25;100.00
51081;BME280;37130;55.670;37.596;2022-12-11T05:38:42;98856.22;;;0.34;100.00
51081;BME280;37130;55.670;37.596;2022-12-11T05:41:11;98870.84;;;0.42;100.00
51081;BME280;37130;55.670;37.596;2022-12-11T05:43:39;98797.94;;;-0.06;100.00
51081;BME280;37130;55.670;37.596;2022-12-11T05:48:36;98889.69;;;0.57;100.00
51081;BME280;37130;55.670;37.596;2022-12-11T05:51:05;98897.41;;;0.63;100.00
51081;BME280;37130;55.670;37.596;2022-12-11T05:53:36;98908.63;;;0.67;100.00
51081;BME280;37130;55.670;37.596;2022-12-11T05:56:10;98914.03;;;0.56;100.00
51081;BME280;37130;55.670;37.596;2022-12-11T05:58:39;98932.28;;;0.54;100.00
51081;BME280;37130;55.670;37.596;2022-12-11T06:01:09;98920.09;;;0.55;100.00
51081;BME280;37130;55.670;37.596;2022-12-11T06:03:37;98919.28;;;0.53;100.00
51081;BME280;37130;55.670;37.596;2022-12-11T06:06:06;98934.09;;;0.49;100.00
51081;BME280;37130;55.670;37.596;2022-12-11T06:08:34;98939.38;;;0.46;100.00
51081;BME280;37130;55.670;37.596;2022-12-11T06:11:02;98854.41;;;-0.09;100.00
51081;BME280;37130;55.670;37.596;2022-12-11T06:13:30;98949.72;;;0.51;100.00
51081;BME280;37130;55.670;37.596;2022-12-11T06:16:02;98947.19;;;0.46;100.00
51081;BME280;37130;55.670;37.596;2022-12-11T06:18:30;98845.78;;;-0.13;100.00
51081;BME280;37130;55.670;37.596;2022-12-11T06:20:58;98955.84;;;0.48;100.00
51081;BME280;37130;55.670;37.596;2022-12-11T06:23:26;98924.13;;;0.23;100.00
51081;BME280;37130;55.670;37.596;2022-12-11T06:25:53;98968.88;;;0.48;100.00
51081;BME280;37130;55.670;37.596;2022-12-11T06:28:21;98958.44;;;0.48;100.00
51081;BME280;37130;55.670;37.596;2022-12-11T06:30:48;98967.91;;;0.52;100.00
51081;BME280;37130;55.670;37.596;2022-12-11T06:33:16;98941.25;;;0.38;100.00
51081;BME280;37130;55.670;37.596;2022-12-11T06:35:43;98964.38;;;0.58;100.00
51081;BME280;37130;55.670;37.596;2022-12-11T06:38:11;98957.41;;;0.57;100.00
51081;BME280;37130;55.670;37.596;2022-12-11T06:40:38;98952.94;;;0.65;100.00
51081;BME280;37130;55.670;37.596;2022-12-11T06:43:06;98955.50;;;0.67;100.00
51081;BME280;37130;55.670;37.596;2022-12-11T06:45:36;98960.75;;;0.65;100.00
51081;BME280;37130;55.670;37.596;2022-12-11T06:48:04;98963.47;;;0.59;100.00
51081;BME280;37130;55.670;37.596;2022-12-11T06:50:32;98872.59;;;-0.09;100.00
51081;BME280;37130;55.670;37.596;2022-12-11T06:52:59;98966.25;;;0.48;100.00
51081;BME280;37130;55.670;37.596;2022-12-11T06:55:27;98963.66;;;0.48;100.00
51081;BME280;37130;55.670;37.596;2022-12-11T06:57:55;98955.06;;;0.41;100.00
51081;BME280;37130;55.670;37.596;2022-12-11T07:00:22;98965.47;;;0.43;100.00
51081;BME280;37130;55.670;37.596;2022-12-11T07:02:50;98967.19;;;0.44;100.00
51081;BME280;37130;55.670;37.596;2022-12-11T07:05:18;98975.06;;;0.41;100.00
51081;BME280;37130;55.670;37.596;2022-12-11T07:07:45;98977.53;;;0.47;100.00
51081;BME280;37130;55.670;37.596;2022-12-11T07:10:13;98981.91;;;0.47;100.00
51081;BME280;37130;55.670;37.596;2022-12-11T07:12:41;98928.66;;;0.13;100.00
51081;BME280;37130;55.670;37.596;2022-12-11T07:15:09;98864.25;;;-0.30;100.00
51081;BME280;37130;55.670;37.596;2022-12-11T07:17:36;98901.97;;;-0.01;100.00
51081;BME280;37130;55.670;37.596;2022-12-11T07:20:05;98930.50;;;0.05;100.00
51081;BME280;37130;55.670;37.596;2022-12-11T07:22:33;98992.25;;;0.51;100.00
51081;BME280;37130;55.670;37.596;2022-12-11T07:25:00;98984.56;;;0.45;100.00
51081;BME280;37130;55.670;37.596;2022-12-11T07:27:29;98981.25;;;0.34;100.00
51081;BME280;37130;55.670;37.596;2022-12-11T07:29:56;98994.25;;;0.37;100.00
51081;BME280;37130;55.670;37.596;2022-12-11T07:32:24;98979.72;;;0.22;100.00
51081;BME280;37130;55.670;37.596;2022-12-11T07:34:52;98998.53;;;0.39;100.00
51081;BME280;37130;55.670;37.596;2022-12-11T07:37:19;99005.41;;;0.43;100.00
51081;BME280;37130;55.670;37.596;2022-12-11T07:39:47;99014.78;;;0.55;100.00
51081;BME280;37130;55.670;37.596;2022-12-11T07:42:15;99001.88;;;0.46;100.00
51081;BME280;37130;55.670;37.596;2022-12-11T07:44:42;98996.69;;;0.46;100.00
51081;BME280;37130;55.670;37.596;2022-12-11T07:47:10;99003.75;;;0.38;100.00
51081;BME280;37130;55.670;37.596;2022-12-11T07:49:38;99002.97;;;0.31;100.00
51081;BME280;37130;55.670;37.596;2022-12-11T07:52:05;98979.66;;;0.25;100.00
51081;BME280;37130;55.670;37.596;2022-12-11T07:54:33;99001.34;;;0.27;100.00
51081;BME280;37130;55.670;37.596;2022-12-11T07:57:01;99004.66;;;0.37;100.00
51081;BME280;37130;55.670;37.596;2022-12-11T07:59:28;99009.09;;;0.30;100.00
51081;BME280;37130;55.670;37.596;2022-12-11T08:01:55;99019.22;;;0.47;100.00
51081;BME280;37130;55.670;37.596;2022-12-11T08:04:24;98905.66;;;-0.16;100.00
51081;BME280;37130;55.670;37.596;2022-12-11T08:06:51;98921.09;;;-0.02;100.00
51081;BME280;37130;55.670;37.596;2022-12-11T08:09:19;99023.06;;;0.77;100.00
51081;BME280;37130;55.670;37.596;2022-12-11T08:11:49;99022.22;;;0.77;100.00
51081;BME280;37130;55.670;37.596;2022-12-11T08:14:18;99021.31;;;0.79;100.00
51081;BME280;37130;55.670;37.596;2022-12-11T08:16:45;99030.13;;;0.72;100.00
51081;BME280;37130;55.670;37.596;2022-12-11T08:19:14;99032.72;;;0.72;100.00
51081;BME280;37130;55.670;37.596;2022-12-11T08:21:41;99039.63;;;0.73;100.00
51081;BME280;37130;55.670;37.596;2022-12-11T08:24:09;99033.50;;;0.77;100.00
51081;BME280;37130;55.670;37.596;2022-12-11T08:26:38;99035.22;;;0.78;100.00
51081;BME280;37130;55.670;37.596;2022-12-11T08:29:05;99037.88;;;0.77;100.00
51081;BME280;37130;55.670;37.596;2022-12-11T08:31:33;98972.66;;;0.29;100.00
51081;BME280;37130;55.670;37.596;2022-12-11T08:34:01;99044.78;;;0.78;100.00
51081;BME280;37130;55.670;37.596;2022-12-11T08:36:29;99051.81;;;0.73;100.00
51081;BME280;37130;55.670;37.596;2022-12-11T08:38:57;99060.38;;;0.81;100.00
51081;BME280;37130;55.670;37.596;2022-12-11T08:41:27;99068.16;;;0.82;100.00
51081;BME280;37130;55.670;37.596;2022-12-11T08:43:56;98994.44;;;0.25;100.00
51081;BME280;37130;55.670;37.596;2022-12-11T08:46:26;99072.59;;;0.76;100.00
51081;BME280;37130;55.670;37.596;2022-12-11T08:48:56;99064.63;;;0.86;100.00
51081;BME280;37130;55.670;37.596;2022-12-11T08:51:25;98954.47;;;0.26;100.00
51081;BME280;37130;55.670;37.596;2022-12-11T08:53:58;99069.69;;;0.94;100.00
51081;BME280;37130;55.670;37.596;2022-12-11T08:56:26;99067.19;;;0.88;100.00
51081;BME280;37130;55.670;37.596;2022-12-11T08:58:55;98997.69;;;0.37;100.00
51081;BME280;37130;55.670;37.596;2022-12-11T09:01:24;99066.59;;;0.72;100.00
51081;BME280;37130;55.670;37.596;2022-12-11T09:03:54;99070.22;;;0.63;100.00
51081;BME280;37130;55.670;37.596;2022-12-11T09:06:23;99068.59;;;0.55;100.00
51081;BME280;37130;55.670;37.596;2022-12-11T09:08:52;99051.44;;;0.41;100.00
51081;BME280;37130;55.670;37.596;2022-12-11T09:11:22;99071.97;;;0.61;100.00
51081;BME280;37130;55.670;37.596;2022-12-11T09:13:50;99079.84;;;0.58;100.00
51081;BME280;37130;55.670;37.596;2022-12-11T09:16:19;99077.25;;;0.57;100.00
51081;BME280;37130;55.670;37.596;2022-12-11T09:18:49;99080.66;;;0.62;100.00
51081;BME280;37130;55.670;37.596;2022-12-11T09:21:19;99078.84;;;0.67;100.00
51081;BME280;37130;55.670;37.596;2022-12-11T09:23:47;99083.25;;;0.62;100.00
51081;BME280;37130;55.670;37.596;2022-12-11T09:26:17;99080.75;;;0.56;100.00
51081;BME280;37130;55.670;37.596;2022-12-11T09:28:45;99080.75;;;0.56;100.00
51081;BME280;37130;55.670;37.596;2022-12-11T09:31:18;99073.78;;;0.58;100.00
51081;BME280;37130;55.670;37.596;2022-12-11T09:33:47;99082.34;;;0.64;100.00
51081;BME280;37130;55.670;37.596;2022-12-11T09:36:15;99103.88;;;0.77;100.00
51081;BME280;37130;55.670;37.596;2022-12-11T09:38:43;99105.56;;;0.81;100.00
51081;BME280;37130;55.670;37.596;2022-12-11T09:46:38;99121.59;;;0.55;100.00
51081;BME280;37130;55.670;37.596;2022-12-11T09:49:26;99103.59;;;0.40;100.00
51081;BME280;37130;55.670;37.596;2022-12-11T09:54:32;99111.13;;;0.58;100.00
51081;BME280;37130;55.670;37.596;2022-12-11T09:57:27;99130.13;;;0.65;100.00
51081;BME280;37130;55.670;37.596;2022-12-11T10:08:04;99119.06;;;0.51;100.00
51081;BME280;37130;55.670;37.596;2022-12-11T10:10:42;99120.91;;;0.42;100.00
51081;BME280;37130;55.670;37.596;2022-12-11T10:13:40;99120.91;;;0.41;100.00
51081;BME280;37130;55.670;37.596;2022-12-11T10:16:41;99117.34;;;0.48;100.00
51081;BME280;37130;55.670;37.596;2022-12-11T10:19:19;99107.09;;;0.37;100.00
51081;BME280;37130;55.670;37.596;2022-12-11T10:21:49;99116.59;;;0.40;100.00
51081;BME280;37130;55.670;37.596;2022-12-11T10:24:37;99085.53;;;0.26;100.00
51081;BME280;37130;55.670;37.596;2022-12-11T10:27:33;99095.94;;;0.29;100.00
51081;BME280;37130;55.670;37.596;2022-12-11T10:35:40;99118.47;;;0.30;100.00
51081;BME280;37130;55.670;37.596;2022-12-11T10:40:54;99109.81;;;0.30;100.00
51081;BME280;37130;55.670;37.596;2022-12-11T10:43:35;99117.56;;;0.33;100.00
51081;BME280;37130;55.670;37.596;2022-12-11T10:46:05;99119.25;;;0.37;100.00
51081;BME280;37130;55.670;37.596;2022-12-11T10:48:33;99120.91;;;0.42;100.00
51081;BME280;37130;55.670;37.596;2022-12-11T10:51:04;99105.22;;;0.46;100.00
51081;BME280;37130;55.670;37.596;2022-12-11T10:53:32;99101.63;;;0.54;100.00
51081;BME280;37130;55.670;37.596;2022-12-11T10:56:01;99111.06;;;0.60;100.00
51081;BME280;37130;55.670;37.596;2022-12-11T10:58:29;99110.41;;;0.47;100.00
51081;BME280;37130;55.670;37.596;2022-12-11T11:01:08;99026.25;;;-0.15;100.00
51081;BME280;37130;55.670;37.596;2022-12-11T11:04:29;99098.53;;;0.29;100.00
51081;BME280;37130;55.670;37.596;2022-12-11T11:06:31;99042.63;;;-0.07;100.00
51081;BME280;37130;55.670;37.596;2022-12-11T11:09:00;99099.28;;;0.36;100.00
51081;BME280;37130;55.670;37.596;2022-12-11T11:11:33;99086.44;;;0.24;100.00
51081;BME280;37130;55.670;37.596;2022-12-11T11:14:15;99078.72;;;0.17;100.00
51081;BME280;37130;55.670;37.596;2022-12-11T11:16:46;99087.31;;;0.22;100.00
51081;BME280;37130;55.670;37.596;2022-12-11T11:19:33;99072.00;;;0.01;100.00
51081;BME280;37130;55.670;37.596;2022-12-11T11:22:20;99082.50;;;-0.05;100.00
51081;BME280;37130;55.670;37.596;2022-12-11T11:24:54;99084.13;;;0.04;100.00
51081;BME280;37130;55.670;37.596;2022-12-11T11:27:43;99089.97;;;0.19;100.00
51081;BME280;37130;55.670;37.596;2022-12-11T11:30:34;99072.50;;;0.28;100.00
51081;BME280;37130;55.670;37.596;2022-12-11T11:33:21;99075.25;;;0.18;100.00
51081;BME280;37130;55.670;37.596;2022-12-11T11:35:55;99069.25;;;0.12;100.00
51081;BME280;37130;55.670;37.596;2022-12-11T11:41:47;99060.78;;;-0.03;100.00
51081;BME280;37130;55.670;37.596;2022-12-11T11:44:10;99077.25;;;-0.04;100.00
51081;BME280;37130;55.670;37.596;2022-12-11T11:46:44;99088.56;;;-0.06;100.00
51081;BME280;37130;55.670;37.596;2022-12-11T11:52:18;99011.13;;;-0.52;100.00
51081;BME280;37130;55.670;37.596;2022-12-11T11:55:07;99087.72;;;-0.05;100.00
51081;BME280;37130;55.670;37.596;2022-12-11T12:00:26;99100.16;;;-0.29;100.00
51081;BME280;37130;55.670;37.596;2022-12-11T12:03:08;99090.81;;;-0.47;100.00
51081;BME280;37130;55.670;37.596;2022-12-11T12:22:22;99113.50;;;-0.61;100.00
51081;BME280;37130;55.670;37.596;2022-12-11T12:28:11;99128.25;;;-0.63;100.00
51081;BME280;37130;55.670;37.596;2022-12-11T12:31:05;99124.03;;;-0.73;100.00
51081;BME280;37130;55.670;37.596;2022-12-11T12:33:43;99117.91;;;-0.69;100.00
51081;BME280;37130;55.670;37.596;2022-12-11T12:36:45;99104.16;;;-0.82;100.00
51081;BME280;37130;55.670;37.596;2022-12-11T12:39:41;99106.75;;;-0.77;100.00
51081;BME280;37130;55.670;37.596;2022-12-11T12:42:29;99110.22;;;-0.81;100.00
51081;BME280;37130;55.670;37.596;2022-12-11T12:45:04;99093.88;;;-0.91;100.00
51081;BME280;37130;55.670;37.596;2022-12-11T12:47:36;99102.44;;;-0.80;100.00
51081;BME280;37130;55.670;37.596;2022-12-11T12:50:11;99102.44;;;-0.78;100.00
51081;BME280;37130;55.670;37.596;2022-12-11T12:52:41;99100.66;;;-0.73;100.00
51081;BME280;37130;55.670;37.596;2022-12-11T12:58:03;99102.31;;;-0.69;100.00
51081;BME280;37130;55.670;37.596;2022-12-11T13:00:34;99104.13;;;-0.77;100.00
51081;BME280;37130;55.670;37.596;2022-12-11T13:03:16;99100.72;;;-0.84;100.00
51081;BME280;37130;55.670;37.596;2022-12-11T13:06:04;99099.94;;;-0.89;100.00
51081;BME280;37130;55.670;37.596;2022-12-11T13:08:49;99104.31;;;-0.96;100.00
51081;BME280;37130;55.670;37.596;2022-12-11T13:11:19;99104.28;;;-0.91;100.00
51081;BME280;37130;55.670;37.596;2022-12-11T13:14:00;99100.81;;;-0.93;100.00
51081;BME280;37130;55.670;37.596;2022-12-11T13:16:37;99100.00;;;-0.98;100.00
51081;BME280;37130;55.670;37.596;2022-12-11T13:27:35;98998.19;;;-1.42;100.00
51081;BME280;37130;55.670;37.596;2022-12-11T13:30:15;99074.75;;;-0.87;100.00
51081;BME280;37130;55.670;37.596;2022-12-11T13:35:21;98878.53;;;-2.10;100.00
51081;BME280;37130;55.670;37.596;2022-12-11T13:37:51;99038.63;;;-1.13;100.00
51081;BME280;37130;55.670;37.596;2022-12-11T13:40:24;99057.53;;;-0.94;100.00
51081;BME280;37130;55.670;37.596;2022-12-11T13:42:58;99059.28;;;-0.98;100.00
51081;BME280;37130;55.670;37.596;2022-12-11T13:45:33;99054.97;;;-1.00;100.00
51081;BME280;37130;55.670;37.596;2022-12-11T13:50:45;99048.88;;;-0.96;100.00
51081;BME280;37130;55.670;37.596;2022-12-11T13:53:15;99044.59;;;-1.03;100.00
51081;BME280;37130;55.670;37.596;2022-12-11T13:55:43;99044.56;;;-0.99;100.00
51081;BME280;37130;55.670;37.596;2022-12-11T13:58:19;99042.91;;;-1.07;100.00
51081;BME280;37130;55.670;37.596;2022-12-11T14:01:05;99042.06;;;-1.06;100.00
51081;BME280;37130;55.670;37.596;2022-12-11T14:03:34;98851.75;;;-2.09;100.00
51081;BME280;37130;55.670;37.596;2022-12-11T14:06:02;99031.69;;;-1.09;100.00
51081;BME280;37130;55.670;37.596;2022-12-11T14:08:34;99040.31;;;-1.06;100.00
51081;BME280;37130;55.670;37.596;2022-12-11T14:11:02;99015.31;;;-1.21;100.00
51081;BME280;37130;55.670;37.596;2022-12-11T14:13:35;99018.84;;;-1.26;100.00
51081;BME280;37130;55.670;37.596;2022-12-11T14:16:05;98974.91;;;-1.48;100.00
51081;BME280;37130;55.670;37.596;2022-12-11T14:18:34;98914.63;;;-1.82;100.00
51081;BME280;37130;55.670;37.596;2022-12-11T14:21:04;99007.59;;;-1.27;100.00
51081;BME280;37130;55.670;37.596;2022-12-11T14:23:34;99008.41;;;-1.23;100.00
51081;BME280;37130;55.670;37.596;2022-12-11T14:26:35;99020.59;;;-1.25;100.00
51081;BME280;37130;55.670;37.596;2022-12-11T14:29:05;98963.69;;;-1.51;100.00
51081;BME280;37130;55.670;37.596;2022-12-11T14:31:36;98933.59;;;-1.74;100.00
51081;BME280;37130;55.670;37.596;2022-12-11T14:34:17;98982.63;;;-1.42;100.00
51081;BME280;37130;55.670;37.596;2022-12-11T14:36:48;98964.50;;;-1.46;100.00
51081;BME280;37130;55.670;37.596;2022-12-11T14:39:19;99022.97;;;-1.05;100.00
51081;BME280;37130;55.670;37.596;2022-12-11T14:41:59;98859.34;;;-1.90;100.00
51081;BME280;37130;55.670;37.596;2022-12-11T14:44:33;99020.28;;;-0.98;100.00
51081;BME280;37130;55.670;37.596;2022-12-11T14:47:04;98901.34;;;-1.48;100.00
51081;BME280;37130;55.670;37.596;2022-12-11T14:49:50;99012.50;;;-0.96;100.00
51081;BME280;37130;55.670;37.596;2022-12-11T14:52:30;98935.16;;;-1.55;100.00
51081;BME280;37130;55.670;37.596;2022-12-11T14:55:04;99036.81;;;-1.03;100.00
51081;BME280;37130;55.670;37.596;2022-12-11T14:57:35;98950.63;;;-1.44;100.00
51081;BME280;37130;55.670;37.596;2022-12-11T15:00:04;98833.50;;;-2.03;100.00
51081;BME280;37130;55.670;37.596;2022-12-11T15:02:33;98995.19;;;-1.00;100.00
51081;BME280;37130;55.670;37.596;2022-12-11T15:05:14;98919.41;;;-1.38;100.00
51081;BME280;37130;55.670;37.596;2022-12-11T15:13:23;99007.44;;;-1.10;100.00
51081;BME280;37130;55.670;37.596;2022-12-11T15:15:51;98960.81;;;-1.24;100.00
51081;BME280;37130;55.670;37.596;2022-12-11T15:20:52;98926.22;;;-1.27;100.00
51081;BME280;37130;55.670;37.596;2022-12-11T15:23:21;98945.09;;;-1.13;100.00
51081;BME280;37130;55.670;37.596;2022-12-11T15:25:54;98908.97;;;-1.33;100.00
51081;BME280;37130;55.670;37.596;2022-12-11T15:28:36;98883.16;;;-1.50;100.00
51081;BME280;37130;55.670;37.596;2022-12-11T15:31:25;98913.09;;;-1.15;100.00
51081;BME280;37130;55.670;37.596;2022-12-11T15:33:54;98901.00;;;-1.19;100.00
51081;BME280;37130;55.670;37.596;2022-12-11T15:36:29;98731.69;;;-2.22;100.00
51081;BME280;37130;55.670;37.596;2022-12-11T15:38:58;98886.31;;;-1.22;100.00
51081;BME280;37130;55.670;37.596;2022-12-11T15:41:26;98897.53;;;-1.18;100.00
51081;BME280;37130;55.670;37.596;2022-12-11T15:43:55;98886.31;;;-1.23;100.00
51081;BME280;37130;55.670;37.596;2022-12-11T15:46:25;98912.13;;;-1.08;100.00
51081;BME280;37130;55.670;37.596;2022-12-11T15:48:54;98911.28;;;-1.07;100.00
51081;BME280;37130;55.670;37.596;2022-12-11T15:51:22;98853.66;;;-1.43;100.00